Time;durP1;ratioP1;P1;durP2;ratioP2;P2;SDS_P1;SDS_P2;PMS_P1;PMS_P2;Temp;Humidity;BMP_temperature;BMP_pressure;BME280_temperature;BME280_humidity;BME280_pressure;Samples;Min_cycle;Max_cycle;Signal;HPM_P1;HPM_P2
2022/11/02 00:08:08;;;;;;;199.00;56.40;;;;;;;14.43;100.00;100516.64;636091;1316;142139;-85
2022/11/02 00:23:13;;;;;;;240.40;66.10;;;;;;;14.54;100.00;100514.30;636111;1311;139234;-85
2022/11/02 00:38:16;;;;;;;216.10;65.90;;;;;;;14.61;100.00;100520.09;636823;1298;139623;-85
2022/11/02 00:53:19;;;;;;;176.30;57.70;;;;;;;14.58;100.00;100525.21;637548;1312;139415;-85
2022/11/02 01:08:26;;;;;;;172.20;54.60;;;;;;;14.60;100.00;100522.47;636670;1313;140146;-85
2022/11/02 01:35:43;;;;;;;119.60;43.10;;;;;;;14.77;100.00;100531.37;624909;1331;1054274;-84
2022/11/02 01:50:46;;;;;;;112.40;43.10;;;;;;;14.74;100.00;100533.64;632013;1322;139184;-86
2022/11/02 02:05:57;;;;;;;113.00;45.00;;;;;;;14.66;100.00;100536.91;632186;1322;138965;-85
2022/11/02 02:21:12;;;;;;;97.10;40.40;;;;;;;14.63;100.00;100538.56;631413;1322;139903;-86
2022/11/02 02:36:28;;;;;;;90.60;40.10;;;;;;;14.59;100.00;100547.20;635286;1304;138674;-86
2022/11/02 02:51:34;;;;;;;79.20;34.50;;;;;;;14.56;100.00;100538.58;634944;1317;139447;-86
2022/11/02 03:06:40;;;;;;;80.80;36.20;;;;;;;14.46;100.00;100544.88;635295;1319;139328;-86
2022/11/02 03:21:44;;;;;;;92.70;38.70;;;;;;;14.36;100.00;100554.67;634982;1319;140312;-88
2022/11/02 03:36:53;;;;;;;79.00;34.10;;;;;;;14.24;100.00;100557.11;636253;1316;138899;-86
2022/11/02 03:52:00;;;;;;;74.40;34.60;;;;;;;14.09;100.00;100580.14;635309;1318;138922;-87
2022/11/02 04:07:04;;;;;;;70.20;33.10;;;;;;;14.05;100.00;100591.98;634916;1318;139541;-87
2022/11/02 04:53:08;;;;;;;66.40;32.60;;;;;;;14.10;100.00;100598.70;636301;1310;139656;-87
2022/11/02 05:08:13;;;;;;;64.10;32.40;;;;;;;13.95;100.00;100597.05;635354;1303;139250;-87
2022/11/02 05:23:16;;;;;;;69.70;31.70;;;;;;;13.71;100.00;100606.73;635760;1310;139132;-87
2022/11/02 05:38:19;;;;;;;63.70;29.20;;;;;;;13.58;100.00;100626.55;635275;1311;139110;-87
2022/11/02 05:53:24;;;;;;;78.10;34.10;;;;;;;13.44;100.00;100635.60;636650;1303;139125;-87
2022/11/02 06:08:27;;;;;;;71.50;35.70;;;;;;;13.62;100.00;100637.81;635668;1303;139415;-88
2022/11/02 06:23:30;;;;;;;81.30;35.50;;;;;;;13.64;100.00;100639.20;635562;1314;139273;-87
2022/11/02 06:38:33;;;;;;;83.50;51.10;;;;;;;13.63;100.00;100650.35;635649;1303;139059;-87
2022/11/02 06:53:36;;;;;;;89.50;40.90;;;;;;;13.74;100.00;100656.71;639972;1303;139138;-87
2022/11/02 07:08:41;;;;;;;80.00;37.20;;;;;;;13.77;100.00;100668.14;640414;1305;139636;-88
2022/11/02 07:23:44;;;;;;;71.00;33.10;;;;;;;13.62;100.00;100673.83;640916;1281;139301;-88
2022/11/02 07:38:47;;;;;;;70.80;33.50;;;;;;;13.57;100.00;100678.48;639662;1304;140517;-86
2022/11/02 07:53:51;;;;;;;79.80;36.10;;;;;;;13.63;100.00;100666.36;640211;1298;139081;-87
2022/11/02 08:08:55;;;;;;;69.70;31.40;;;;;;;13.68;100.00;100667.99;640143;1290;139176;-87
2022/11/02 08:24:19;;;;;;;75.20;34.60;;;;;;;13.72;100.00;100672.50;639616;1312;139430;-87
2022/11/02 08:39:22;;;;;;;80.50;35.40;;;;;;;13.80;100.00;100670.03;639893;1313;140199;-87
2022/11/02 08:54:25;;;;;;;83.50;43.80;;;;;;;13.93;100.00;100672.98;640501;1310;139264;-86
2022/11/02 09:09:29;;;;;;;60.30;30.00;;;;;;;13.89;100.00;100679.20;639635;1303;139262;-86
2022/11/02 09:24:32;;;;;;;58.10;30.20;;;;;;;13.88;100.00;100671.01;639571;1305;139855;-87
2022/11/02 09:39:36;;;;;;;46.90;23.10;;;;;;;13.90;100.00;100673.61;639469;1312;139195;-85
2022/11/02 09:54:44;;;;;;;46.10;25.50;;;;;;;13.93;100.00;100671.54;639669;1295;139945;-86
2022/11/02 10:09:59;;;;;;;42.10;23.10;;;;;;;14.08;100.00;100674.00;640823;1297;139912;-86
2022/11/02 10:25:07;;;;;;;57.70;27.20;;;;;;;14.15;100.00;100680.01;640072;1312;139279;-86
2022/11/02 10:40:16;;;;;;;58.80;27.20;;;;;;;14.27;100.00;100667.57;640652;1312;139878;-86
2022/11/02 10:55:30;;;;;;;60.60;28.90;;;;;;;14.39;100.00;100669.77;639914;1300;139274;-86
2022/11/02 11:10:37;;;;;;;56.10;24.00;;;;;;;14.37;100.00;100668.73;640586;1313;139182;-87
2022/11/02 11:25:42;;;;;;;52.70;22.80;;;;;;;14.52;100.00;100659.75;638285;1300;140500;-86
2022/11/02 11:40:52;;;;;;;42.90;19.40;;;;;;;14.48;100.00;100650.58;637118;1306;139407;-86
2022/11/02 11:56:00;;;;;;;43.50;21.00;;;;;;;14.41;100.00;100644.39;639499;1312;139779;-86
2022/11/02 12:11:09;;;;;;;37.30;19.80;;;;;;;14.43;100.00;100631.33;638211;1299;139925;-85
2022/11/02 12:26:35;;;;;;;36.30;19.00;;;;;;;14.66;100.00;100610.98;639219;1300;138982;-86
2022/11/02 12:41:51;;;;;;;33.90;17.70;;;;;;;14.68;100.00;100613.10;638492;1309;139235;-84
2022/11/02 12:56:54;;;;;;;30.50;17.40;;;;;;;15.00;100.00;100608.30;638172;1305;139664;-85
2022/11/02 13:12:04;;;;;;;29.20;17.10;;;;;;;17.48;100.00;100599.36;639005;1313;140350;-86
2022/11/02 13:27:25;;;;;;;31.50;16.30;;;;;;;17.90;100.00;100584.77;637885;1298;139603;-85
2022/11/02 13:43:02;;;;;;;27.20;16.70;;;;;;;19.21;100.00;100581.41;637745;1312;1211784;-85
2022/11/02 13:58:06;;;;;;;25.30;16.70;;;;;;;19.00;98.99;100575.27;638423;1313;141595;-84
2022/11/02 14:13:12;;;;;;;28.70;17.00;;;;;;;20.99;91.43;100577.64;637912;1313;139128;-84
2022/11/02 14:28:22;;;;;;;28.50;15.90;;;;;;;18.19;90.82;100596.52;638605;1313;139201;-84
2022/11/02 14:43:40;;;;;;;28.60;18.70;;;;;;;16.30;97.97;100609.30;638674;1306;139460;-85
2022/11/02 14:58:55;;;;;;;49.70;25.80;;;;;;;15.88;100.00;100612.24;639075;1298;139041;-84
2022/11/02 15:13:59;;;;;;;49.40;26.10;;;;;;;14.71;100.00;100622.80;638238;1298;139507;-84
2022/11/02 15:29:06;;;;;;;74.60;47.50;;;;;;;14.17;100.00;100634.12;638324;1291;139170;-84
2022/11/02 15:44:14;;;;;;;41.60;24.20;;;;;;;13.68;100.00;100639.31;638672;1290;139387;-84
2022/11/02 15:59:39;;;;;;;44.40;26.70;;;;;;;13.42;100.00;100647.06;639332;1290;141641;-86
2022/11/02 16:14:45;;;;;;;45.20;28.80;;;;;;;13.11;100.00;100649.16;643607;1298;139551;-85
2022/11/02 16:29:49;;;;;;;62.40;34.80;;;;;;;13.05;100.00;100666.05;640367;1298;139646;-84
2022/11/02 16:45:00;;;;;;;83.50;46.90;;;;;;;13.19;100.00;100669.58;638395;1299;140480;-84
2022/11/02 17:00:14;;;;;;;70.40;36.00;;;;;;;13.19;100.00;100671.45;638262;1296;139709;-84
2022/11/02 17:15:20;;;;;;;56.50;29.60;;;;;;;13.26;100.00;100684.47;638453;1298;140610;-84
2022/11/02 17:30:33;;;;;;;61.30;31.50;;;;;;;13.29;100.00;100690.59;638313;1306;139196;-85
2022/11/02 17:45:37;;;;;;;49.00;20.90;;;;;;;13.24;100.00;100682.27;638454;1307;140075;-85
2022/11/02 18:00:40;;;;;;;25.50;15.90;;;;;;;13.14;100.00;100675.95;640279;1290;139545;-85
2022/11/02 18:15:44;;;;;;;23.20;10.80;;;;;;;12.99;100.00;100689.77;639768;1312;139077;-86
2022/11/02 18:30:47;;;;;;;31.90;18.40;;;;;;;12.82;100.00;100693.31;640436;1312;139260;-86
2022/11/02 18:45:52;;;;;;;69.90;23.70;;;;;;;12.65;100.00;100703.62;639171;1304;139430;-86
2022/11/02 19:01:08;;;;;;;31.40;15.30;;;;;;;12.45;100.00;100699.89;638493;1299;140358;-86
2022/11/02 19:16:12;;;;;;;26.30;12.40;;;;;;;12.22;100.00;100709.51;639445;1301;140268;-85
2022/11/02 19:31:15;;;;;;;24.40;9.90;;;;;;;12.03;100.00;100704.09;640794;1297;139981;-86
2022/11/02 19:46:21;;;;;;;46.80;19.60;;;;;;;11.90;100.00;100701.95;640808;1299;139091;-85
2022/11/02 20:01:29;;;;;;;34.90;13.00;;;;;;;11.80;100.00;100710.50;640827;1312;139493;-85
2022/11/02 20:16:33;;;;;;;21.20;10.10;;;;;;;11.61;100.00;100715.80;641340;1305;140417;-85
2022/11/02 20:31:38;;;;;;;79.40;37.50;;;;;;;11.46;100.00;100727.21;640046;1312;139784;-86
2022/11/02 20:46:46;;;;;;;34.60;17.10;;;;;;;11.27;100.00;100740.52;640685;1298;140830;-85
2022/11/02 21:01:55;;;;;;;36.30;17.40;;;;;;;11.10;100.00;100745.63;641082;1302;139040;-85
2022/11/02 21:17:01;;;;;;;30.90;17.60;;;;;;;11.31;100.00;100743.15;639480;1302;138834;-85
2022/11/02 21:32:04;;;;;;;27.30;12.60;;;;;;;11.34;100.00;100766.34;641021;1313;139632;-84
2022/11/02 21:47:07;;;;;;;42.50;21.60;;;;;;;11.38;100.00;100765.18;640897;1306;139085;-84
2022/11/02 22:02:11;;;;;;;57.70;16.90;;;;;;;11.11;100.00;100763.73;639899;1309;139037;-84
2022/11/02 22:17:15;;;;;;;49.40;14.20;;;;;;;10.76;100.00;100765.34;639575;1312;139699;-85
2022/11/02 22:32:38;;;;;;;16.70;9.10;;;;;;;10.62;100.00;100762.14;638864;1303;139343;-85
2022/11/02 22:47:41;;;;;;;15.10;6.10;;;;;;;10.55;100.00;100778.77;639028;1313;139279;-85
2022/11/02 23:02:47;;;;;;;14.50;5.10;;;;;;;10.75;100.00;100790.77;638260;1312;140010;-85
2022/11/02 23:17:51;;;;;;;21.20;8.90;;;;;;;10.74;100.00;100794.56;638352;1313;140650;-84
2022/11/02 23:32:54;;;;;;;9.00;4.90;;;;;;;10.63;100.00;100813.44;641250;1302;140090;-85
2022/11/02 23:47:59;;;;;;;11.00;5.20;;;;;;;10.62;100.00;100814.89;641652;1303;138770;-85
